sensor_id;sensor_type;location;lat;lon;timestamp;P1;durP1;ratioP1;P2;durP2;ratioP2
77984;SDS011;67177;47.240;-1.546;2023-07-09T00:02:25;3.40;;;0.90;;
77984;SDS011;67177;47.240;-1.546;2023-07-09T00:04:52;5.30;;;1.13;;
77984;SDS011;67177;47.240;-1.546;2023-07-09T00:09:54;3.10;;;0.80;;
77984;SDS011;67177;47.240;-1.546;2023-07-09T00:12:20;4.68;;;0.88;;
77984;SDS011;67177;47.240;-1.546;2023-07-09T00:14:46;2.72;;;0.70;;
77984;SDS011;67177;47.240;-1.546;2023-07-09T00:19:55;2.58;;;0.70;;
77984;SDS011;67177;47.240;-1.546;2023-07-09T00:22:21;2.30;;;0.60;;
77984;SDS011;67177;47.240;-1.546;2023-07-09T00:24:49;2.72;;;0.75;;
77984;SDS011;67177;47.240;-1.546;2023-07-09T00:27:19;3.00;;;0.60;;
77984;SDS011;67177;47.240;-1.546;2023-07-09T00:29:46;2.97;;;0.70;;
77984;SDS011;67177;47.240;-1.546;2023-07-09T00:32:15;2.78;;;0.70;;
77984;SDS011;67177;47.240;-1.546;2023-07-09T00:34:45;2.73;;;0.70;;
77984;SDS011;67177;47.240;-1.546;2023-07-09T00:37:16;2.22;;;0.73;;
77984;SDS011;67177;47.240;-1.546;2023-07-09T00:39:44;3.38;;;0.70;;
77984;SDS011;67177;47.240;-1.546;2023-07-09T00:42:19;2.92;;;0.70;;
77984;SDS011;67177;47.240;-1.546;2023-07-09T00:44:51;3.43;;;0.70;;
77984;SDS011;67177;47.240;-1.546;2023-07-09T00:47:29;2.47;;;0.70;;
77984;SDS011;67177;47.240;-1.546;2023-07-09T00:53:04;2.33;;;0.68;;
77984;SDS011;67177;47.240;-1.546;2023-07-09T00:55:38;2.75;;;0.80;;
77984;SDS011;67177;47.240;-1.546;2023-07-09T00:58:07;3.73;;;0.80;;
77984;SDS011;67177;47.240;-1.546;2023-07-09T01:00:37;2.70;;;0.60;;
77984;SDS011;67177;47.240;-1.546;2023-07-09T01:03:15;3.20;;;0.80;;
77984;SDS011;67177;47.240;-1.546;2023-07-09T01:05:46;3.45;;;0.80;;
77984;SDS011;67177;47.240;-1.546;2023-07-09T01:08:16;3.20;;;0.88;;
77984;SDS011;67177;47.240;-1.546;2023-07-09T01:10:43;2.30;;;0.60;;
77984;SDS011;67177;47.240;-1.546;2023-07-09T01:13:09;2.47;;;0.70;;
77984;SDS011;67177;47.240;-1.546;2023-07-09T01:15:35;2.75;;;0.70;;
77984;SDS011;67177;47.240;-1.546;2023-07-09T01:18:03;3.33;;;0.80;;
77984;SDS011;67177;47.240;-1.546;2023-07-09T01:20:29;3.45;;;0.80;;
77984;SDS011;67177;47.240;-1.546;2023-07-09T01:22:56;3.38;;;0.80;;
77984;SDS011;67177;47.240;-1.546;2023-07-09T01:25:22;3.65;;;0.80;;
77984;SDS011;67177;47.240;-1.546;2023-07-09T01:27:49;4.45;;;1.00;;
77984;SDS011;67177;47.240;-1.546;2023-07-09T01:30:19;3.73;;;0.80;;
77984;SDS011;67177;47.240;-1.546;2023-07-09T01:32:55;3.00;;;0.70;;
77984;SDS011;67177;47.240;-1.546;2023-07-09T01:35:22;2.95;;;0.90;;
77984;SDS011;67177;47.240;-1.546;2023-07-09T01:37:48;2.45;;;0.70;;
77984;SDS011;67177;47.240;-1.546;2023-07-09T01:40:16;3.70;;;0.90;;
77984;SDS011;67177;47.240;-1.546;2023-07-09T01:42:44;3.30;;;0.70;;
77984;SDS011;67177;47.240;-1.546;2023-07-09T01:45:09;4.32;;;0.88;;
77984;SDS011;67177;47.240;-1.546;2023-07-09T01:47:36;5.35;;;1.08;;
77984;SDS011;67177;47.240;-1.546;2023-07-09T01:50:03;4.53;;;1.00;;
77984;SDS011;67177;47.240;-1.546;2023-07-09T01:52:30;2.47;;;0.70;;
77984;SDS011;67177;47.240;-1.546;2023-07-09T01:54:57;4.13;;;0.90;;
77984;SDS011;67177;47.240;-1.546;2023-07-09T01:57:24;3.85;;;0.98;;
77984;SDS011;67177;47.240;-1.546;2023-07-09T01:59:58;3.35;;;0.85;;
77984;SDS011;67177;47.240;-1.546;2023-07-09T02:02:25;3.15;;;1.00;;
77984;SDS011;67177;47.240;-1.546;2023-07-09T02:04:53;3.03;;;0.70;;
77984;SDS011;67177;47.240;-1.546;2023-07-09T02:07:20;3.60;;;0.80;;
77984;SDS011;67177;47.240;-1.546;2023-07-09T02:09:47;2.63;;;0.70;;
77984;SDS011;67177;47.240;-1.546;2023-07-09T02:12:14;2.53;;;0.60;;
77984;SDS011;67177;47.240;-1.546;2023-07-09T02:14:41;2.55;;;0.70;;
77984;SDS011;67177;47.240;-1.546;2023-07-09T02:17:08;3.53;;;0.80;;
77984;SDS011;67177;47.240;-1.546;2023-07-09T02:19:35;5.72;;;0.88;;
77984;SDS011;67177;47.240;-1.546;2023-07-09T02:22:01;4.55;;;1.02;;
77984;SDS011;67177;47.240;-1.546;2023-07-09T02:24:27;5.68;;;1.05;;
77984;SDS011;67177;47.240;-1.546;2023-07-09T02:26:54;5.67;;;1.30;;
77984;SDS011;67177;47.240;-1.546;2023-07-09T02:29:20;6.88;;;1.40;;
77984;SDS011;67177;47.240;-1.546;2023-07-09T02:31:47;6.05;;;1.20;;
77984;SDS011;67177;47.240;-1.546;2023-07-09T02:34:13;5.00;;;1.23;;
77984;SDS011;67177;47.240;-1.546;2023-07-09T02:36:39;5.60;;;1.37;;
77984;SDS011;67177;47.240;-1.546;2023-07-09T02:39:08;6.03;;;1.30;;
77984;SDS011;67177;47.240;-1.546;2023-07-09T02:41:36;4.65;;;1.00;;
77984;SDS011;67177;47.240;-1.546;2023-07-09T02:44:02;4.47;;;1.00;;
77984;SDS011;67177;47.240;-1.546;2023-07-09T02:46:28;3.60;;;1.10;;
77984;SDS011;67177;47.240;-1.546;2023-07-09T02:48:54;5.80;;;1.13;;
77984;SDS011;67177;47.240;-1.546;2023-07-09T02:51:20;4.63;;;0.93;;
77984;SDS011;67177;47.240;-1.546;2023-07-09T02:53:46;3.85;;;0.82;;
77984;SDS011;67177;47.240;-1.546;2023-07-09T02:56:12;3.63;;;0.85;;
77984;SDS011;67177;47.240;-1.546;2023-07-09T02:58:38;2.57;;;0.77;;
77984;SDS011;67177;47.240;-1.546;2023-07-09T03:01:03;2.92;;;0.80;;
77984;SDS011;67177;47.240;-1.546;2023-07-09T03:03:30;3.87;;;0.90;;
77984;SDS011;67177;47.240;-1.546;2023-07-09T03:05:56;3.08;;;0.70;;
77984;SDS011;67177;47.240;-1.546;2023-07-09T03:08:22;4.53;;;1.00;;
77984;SDS011;67177;47.240;-1.546;2023-07-09T03:10:47;2.97;;;0.80;;
77984;SDS011;67177;47.240;-1.546;2023-07-09T03:13:13;4.03;;;0.90;;
77984;SDS011;67177;47.240;-1.546;2023-07-09T03:15:39;3.47;;;0.97;;
77984;SDS011;67177;47.240;-1.546;2023-07-09T03:18:04;4.83;;;1.20;;
77984;SDS011;67177;47.240;-1.546;2023-07-09T03:20:30;3.60;;;0.93;;
77984;SDS011;67177;47.240;-1.546;2023-07-09T03:22:56;3.30;;;1.00;;
77984;SDS011;67177;47.240;-1.546;2023-07-09T03:25:22;4.67;;;0.90;;
77984;SDS011;67177;47.240;-1.546;2023-07-09T03:27:48;3.60;;;1.00;;
77984;SDS011;67177;47.240;-1.546;2023-07-09T03:30:14;3.63;;;1.00;;
77984;SDS011;67177;47.240;-1.546;2023-07-09T03:32:40;3.80;;;0.80;;
77984;SDS011;67177;47.240;-1.546;2023-07-09T03:35:06;3.13;;;0.85;;
77984;SDS011;67177;47.240;-1.546;2023-07-09T03:37:32;4.60;;;1.27;;
77984;SDS011;67177;47.240;-1.546;2023-07-09T03:39:57;6.23;;;1.30;;
77984;SDS011;67177;47.240;-1.546;2023-07-09T03:42:23;4.45;;;1.23;;
77984;SDS011;67177;47.240;-1.546;2023-07-09T03:44:49;3.73;;;1.10;;
77984;SDS011;67177;47.240;-1.546;2023-07-09T03:47:14;3.58;;;1.08;;
77984;SDS011;67177;47.240;-1.546;2023-07-09T03:49:41;3.60;;;0.80;;
77984;SDS011;67177;47.240;-1.546;2023-07-09T03:52:07;2.85;;;0.88;;
77984;SDS011;67177;47.240;-1.546;2023-07-09T03:54:33;4.05;;;1.00;;
77984;SDS011;67177;47.240;-1.546;2023-07-09T03:56:58;3.17;;;0.90;;
77984;SDS011;67177;47.240;-1.546;2023-07-09T03:59:24;2.67;;;0.70;;
77984;SDS011;67177;47.240;-1.546;2023-07-09T04:01:50;3.43;;;0.87;;
77984;SDS011;67177;47.240;-1.546;2023-07-09T04:04:15;4.07;;;1.00;;
77984;SDS011;67177;47.240;-1.546;2023-07-09T04:06:45;5.03;;;1.20;;
77984;SDS011;67177;47.240;-1.546;2023-07-09T04:09:13;3.73;;;1.17;;
77984;SDS011;67177;47.240;-1.546;2023-07-09T04:11:39;4.35;;;1.38;;
77984;SDS011;67177;47.240;-1.546;2023-07-09T04:14:04;5.50;;;1.50;;
77984;SDS011;67177;47.240;-1.546;2023-07-09T04:16:32;5.90;;;1.40;;
77984;SDS011;67177;47.240;-1.546;2023-07-09T04:18:57;4.77;;;1.07;;
77984;SDS011;67177;47.240;-1.546;2023-07-09T04:21:23;5.55;;;1.35;;
77984;SDS011;67177;47.240;-1.546;2023-07-09T04:23:48;4.47;;;1.10;;
77984;SDS011;67177;47.240;-1.546;2023-07-09T04:26:14;3.88;;;1.00;;
77984;SDS011;67177;47.240;-1.546;2023-07-09T04:28:40;4.00;;;1.10;;
77984;SDS011;67177;47.240;-1.546;2023-07-09T04:31:06;3.80;;;1.20;;
77984;SDS011;67177;47.240;-1.546;2023-07-09T04:33:31;5.27;;;1.13;;
77984;SDS011;67177;47.240;-1.546;2023-07-09T04:36:00;5.35;;;1.30;;
77984;SDS011;67177;47.240;-1.546;2023-07-09T04:38:26;4.33;;;0.97;;
77984;SDS011;67177;47.240;-1.546;2023-07-09T04:40:52;3.55;;;1.00;;
77984;SDS011;67177;47.240;-1.546;2023-07-09T04:43:17;4.23;;;1.00;;
77984;SDS011;67177;47.240;-1.546;2023-07-09T04:45:43;4.38;;;1.20;;
77984;SDS011;67177;47.240;-1.546;2023-07-09T04:48:08;4.07;;;1.30;;
77984;SDS011;67177;47.240;-1.546;2023-07-09T04:50:34;3.20;;;0.87;;
77984;SDS011;67177;47.240;-1.546;2023-07-09T04:53:00;3.28;;;0.95;;
77984;SDS011;67177;47.240;-1.546;2023-07-09T04:55:26;3.43;;;0.90;;
77984;SDS011;67177;47.240;-1.546;2023-07-09T04:57:51;4.25;;;1.17;;
77984;SDS011;67177;47.240;-1.546;2023-07-09T05:00:18;3.70;;;0.90;;
77984;SDS011;67177;47.240;-1.546;2023-07-09T05:02:44;3.95;;;1.08;;
77984;SDS011;67177;47.240;-1.546;2023-07-09T05:05:10;4.30;;;1.10;;
77984;SDS011;67177;47.240;-1.546;2023-07-09T05:07:37;3.70;;;0.80;;
77984;SDS011;67177;47.240;-1.546;2023-07-09T05:10:03;4.10;;;1.10;;
77984;SDS011;67177;47.240;-1.546;2023-07-09T05:12:29;3.90;;;0.98;;
77984;SDS011;67177;47.240;-1.546;2023-07-09T05:14:55;3.80;;;0.90;;
77984;SDS011;67177;47.240;-1.546;2023-07-09T05:17:21;3.13;;;0.90;;
77984;SDS011;67177;47.240;-1.546;2023-07-09T05:19:48;2.78;;;0.80;;
77984;SDS011;67177;47.240;-1.546;2023-07-09T05:22:17;3.00;;;0.80;;
77984;SDS011;67177;47.240;-1.546;2023-07-09T05:24:43;3.42;;;0.70;;
77984;SDS011;67177;47.240;-1.546;2023-07-09T05:27:08;3.17;;;0.90;;
77984;SDS011;67177;47.240;-1.546;2023-07-09T05:29:34;4.18;;;0.90;;
77984;SDS011;67177;47.240;-1.546;2023-07-09T05:32:00;4.13;;;0.93;;
77984;SDS011;67177;47.240;-1.546;2023-07-09T05:34:25;4.35;;;0.90;;
77984;SDS011;67177;47.240;-1.546;2023-07-09T05:36:51;2.10;;;0.60;;
77984;SDS011;67177;47.240;-1.546;2023-07-09T05:39:17;3.00;;;0.80;;
77984;SDS011;67177;47.240;-1.546;2023-07-09T05:41:43;2.83;;;0.75;;
77984;SDS011;67177;47.240;-1.546;2023-07-09T05:44:08;2.50;;;0.70;;
77984;SDS011;67177;47.240;-1.546;2023-07-09T05:46:35;2.50;;;0.70;;
77984;SDS011;67177;47.240;-1.546;2023-07-09T05:49:02;3.10;;;0.80;;
77984;SDS011;67177;47.240;-1.546;2023-07-09T05:51:28;3.00;;;0.70;;
77984;SDS011;67177;47.240;-1.546;2023-07-09T05:53:54;2.10;;;0.60;;
77984;SDS011;67177;47.240;-1.546;2023-07-09T05:56:20;2.42;;;0.52;;
77984;SDS011;67177;47.240;-1.546;2023-07-09T05:58:46;2.97;;;0.77;;
77984;SDS011;67177;47.240;-1.546;2023-07-09T06:01:12;4.80;;;0.90;;
77984;SDS011;67177;47.240;-1.546;2023-07-09T06:03:38;3.17;;;0.90;;
77984;SDS011;67177;47.240;-1.546;2023-07-09T06:06:04;2.85;;;0.80;;
77984;SDS011;67177;47.240;-1.546;2023-07-09T06:08:31;2.72;;;0.80;;
77984;SDS011;67177;47.240;-1.546;2023-07-09T06:10:58;3.10;;;0.73;;
77984;SDS011;67177;47.240;-1.546;2023-07-09T06:13:25;3.00;;;0.80;;
77984;SDS011;67177;47.240;-1.546;2023-07-09T06:15:53;2.50;;;0.70;;
77984;SDS011;67177;47.240;-1.546;2023-07-09T06:18:23;3.15;;;0.90;;
77984;SDS011;67177;47.240;-1.546;2023-07-09T06:20:50;3.20;;;0.70;;
77984;SDS011;67177;47.240;-1.546;2023-07-09T06:23:17;3.30;;;0.70;;
77984;SDS011;67177;47.240;-1.546;2023-07-09T06:25:44;2.97;;;0.77;;
77984;SDS011;67177;47.240;-1.546;2023-07-09T06:28:15;3.20;;;0.90;;
77984;SDS011;67177;47.240;-1.546;2023-07-09T06:30:41;3.13;;;0.77;;
77984;SDS011;67177;47.240;-1.546;2023-07-09T06:33:07;2.75;;;0.73;;
77984;SDS011;67177;47.240;-1.546;2023-07-09T06:35:34;2.53;;;0.80;;
77984;SDS011;67177;47.240;-1.546;2023-07-09T06:38:00;2.53;;;0.70;;
77984;SDS011;67177;47.240;-1.546;2023-07-09T06:40:25;2.37;;;0.70;;
77984;SDS011;67177;47.240;-1.546;2023-07-09T06:42:51;2.45;;;0.80;;
77984;SDS011;67177;47.240;-1.546;2023-07-09T06:45:17;2.80;;;0.80;;
77984;SDS011;67177;47.240;-1.546;2023-07-09T06:47:42;2.78;;;0.80;;
77984;SDS011;67177;47.240;-1.546;2023-07-09T06:50:08;3.17;;;0.70;;
77984;SDS011;67177;47.240;-1.546;2023-07-09T06:52:34;2.70;;;0.70;;
77984;SDS011;67177;47.240;-1.546;2023-07-09T06:55:00;1.43;;;0.60;;
77984;SDS011;67177;47.240;-1.546;2023-07-09T06:57:25;2.45;;;0.73;;
77984;SDS011;67177;47.240;-1.546;2023-07-09T06:59:51;2.23;;;0.73;;
77984;SDS011;67177;47.240;-1.546;2023-07-09T07:02:16;2.03;;;0.63;;
77984;SDS011;67177;47.240;-1.546;2023-07-09T07:04:43;3.05;;;0.75;;
77984;SDS011;67177;47.240;-1.546;2023-07-09T07:07:09;2.65;;;0.85;;
77984;SDS011;67177;47.240;-1.546;2023-07-09T07:09:35;4.07;;;0.90;;
77984;SDS011;67177;47.240;-1.546;2023-07-09T07:12:00;5.10;;;1.07;;
77984;SDS011;67177;47.240;-1.546;2023-07-09T07:14:26;4.60;;;1.08;;
77984;SDS011;67177;47.240;-1.546;2023-07-09T07:16:51;4.17;;;1.10;;
77984;SDS011;67177;47.240;-1.546;2023-07-09T07:19:17;4.00;;;1.15;;
77984;SDS011;67177;47.240;-1.546;2023-07-09T07:21:43;3.77;;;1.00;;
77984;SDS011;67177;47.240;-1.546;2023-07-09T07:24:09;4.40;;;1.20;;
77984;SDS011;67177;47.240;-1.546;2023-07-09T07:26:34;3.77;;;1.20;;
77984;SDS011;67177;47.240;-1.546;2023-07-09T07:29:00;4.40;;;1.17;;
77984;SDS011;67177;47.240;-1.546;2023-07-09T07:31:25;3.50;;;0.90;;
77984;SDS011;67177;47.240;-1.546;2023-07-09T07:33:51;4.23;;;1.10;;
77984;SDS011;67177;47.240;-1.546;2023-07-09T07:36:17;5.45;;;1.40;;
77984;SDS011;67177;47.240;-1.546;2023-07-09T07:38:43;4.53;;;1.00;;
77984;SDS011;67177;47.240;-1.546;2023-07-09T07:41:08;3.85;;;1.10;;
77984;SDS011;67177;47.240;-1.546;2023-07-09T07:43:34;3.60;;;1.07;;
77984;SDS011;67177;47.240;-1.546;2023-07-09T07:45:59;4.32;;;1.13;;
77984;SDS011;67177;47.240;-1.546;2023-07-09T07:48:25;4.37;;;1.23;;
77984;SDS011;67177;47.240;-1.546;2023-07-09T07:50:51;3.63;;;1.07;;
77984;SDS011;67177;47.240;-1.546;2023-07-09T07:53:16;3.20;;;0.90;;
77984;SDS011;67177;47.240;-1.546;2023-07-09T07:55:42;4.03;;;1.20;;
77984;SDS011;67177;47.240;-1.546;2023-07-09T07:58:10;4.25;;;1.10;;
77984;SDS011;67177;47.240;-1.546;2023-07-09T08:00:37;3.22;;;1.10;;
77984;SDS011;67177;47.240;-1.546;2023-07-09T08:03:04;4.10;;;1.10;;
77984;SDS011;67177;47.240;-1.546;2023-07-09T08:05:29;4.35;;;1.08;;
77984;SDS011;67177;47.240;-1.546;2023-07-09T08:07:55;3.20;;;1.00;;
77984;SDS011;67177;47.240;-1.546;2023-07-09T08:10:21;3.25;;;1.00;;
77984;SDS011;67177;47.240;-1.546;2023-07-09T08:12:47;3.10;;;0.88;;
77984;SDS011;67177;47.240;-1.546;2023-07-09T08:15:12;2.70;;;0.80;;
77984;SDS011;67177;47.240;-1.546;2023-07-09T08:17:38;4.37;;;0.93;;
77984;SDS011;67177;47.240;-1.546;2023-07-09T08:20:04;3.75;;;1.00;;
77984;SDS011;67177;47.240;-1.546;2023-07-09T08:22:30;3.58;;;0.80;;
77984;SDS011;67177;47.240;-1.546;2023-07-09T08:24:56;2.47;;;0.90;;
77984;SDS011;67177;47.240;-1.546;2023-07-09T08:27:22;3.40;;;0.90;;
77984;SDS011;67177;47.240;-1.546;2023-07-09T08:29:47;2.97;;;0.83;;
77984;SDS011;67177;47.240;-1.546;2023-07-09T08:32:13;2.42;;;0.82;;
77984;SDS011;67177;47.240;-1.546;2023-07-09T08:34:40;2.97;;;0.80;;
77984;SDS011;67177;47.240;-1.546;2023-07-09T08:37:06;3.30;;;0.98;;
77984;SDS011;67177;47.240;-1.546;2023-07-09T08:39:33;4.03;;;1.00;;
77984;SDS011;67177;47.240;-1.546;2023-07-09T08:42:14;3.60;;;0.90;;
77984;SDS011;67177;47.240;-1.546;2023-07-09T08:50:32;3.10;;;0.90;;
77984;SDS011;67177;47.240;-1.546;2023-07-09T08:52:59;3.58;;;0.95;;
77984;SDS011;67177;47.240;-1.546;2023-07-09T08:55:28;2.72;;;0.70;;
77984;SDS011;67177;47.240;-1.546;2023-07-09T08:58:03;3.28;;;1.00;;
77984;SDS011;67177;47.240;-1.546;2023-07-09T09:00:41;3.47;;;0.97;;
77984;SDS011;67177;47.240;-1.546;2023-07-09T09:06:00;3.45;;;0.90;;
77984;SDS011;67177;47.240;-1.546;2023-07-09T09:08:47;3.38;;;0.90;;
77984;SDS011;67177;47.240;-1.546;2023-07-09T09:11:21;3.20;;;1.00;;
77984;SDS011;67177;47.240;-1.546;2023-07-09T09:13:56;5.07;;;1.10;;
77984;SDS011;67177;47.240;-1.546;2023-07-09T09:16:27;4.07;;;1.13;;
77984;SDS011;67177;47.240;-1.546;2023-07-09T09:18:57;3.80;;;1.10;;
77984;SDS011;67177;47.240;-1.546;2023-07-09T09:23:57;3.53;;;1.07;;
77984;SDS011;67177;47.240;-1.546;2023-07-09T09:26:28;3.42;;;1.02;;
77984;SDS011;67177;47.240;-1.546;2023-07-09T09:28:57;3.80;;;1.20;;
77984;SDS011;67177;47.240;-1.546;2023-07-09T09:31:27;4.17;;;0.83;;
77984;SDS011;67177;47.240;-1.546;2023-07-09T09:33:54;3.50;;;1.02;;
77984;SDS011;67177;47.240;-1.546;2023-07-09T09:36:24;3.90;;;1.10;;
77984;SDS011;67177;47.240;-1.546;2023-07-09T09:38:51;6.38;;;1.30;;
77984;SDS011;67177;47.240;-1.546;2023-07-09T09:41:19;4.53;;;1.10;;
77984;SDS011;67177;47.240;-1.546;2023-07-09T09:43:47;3.90;;;1.10;;
77984;SDS011;67177;47.240;-1.546;2023-07-09T09:46:17;5.70;;;1.40;;
77984;SDS011;67177;47.240;-1.546;2023-07-09T09:48:46;3.97;;;1.00;;
77984;SDS011;67177;47.240;-1.546;2023-07-09T09:51:13;4.88;;;1.17;;
77984;SDS011;67177;47.240;-1.546;2023-07-09T09:53:41;3.95;;;1.00;;
77984;SDS011;67177;47.240;-1.546;2023-07-09T09:56:27;3.85;;;1.25;;
77984;SDS011;67177;47.240;-1.546;2023-07-09T09:58:53;3.85;;;1.30;;
77984;SDS011;67177;47.240;-1.546;2023-07-09T10:01:21;4.72;;;1.23;;
77984;SDS011;67177;47.240;-1.546;2023-07-09T10:03:54;4.63;;;1.30;;
77984;SDS011;67177;47.240;-1.546;2023-07-09T10:06:25;4.88;;;1.40;;
77984;SDS011;67177;47.240;-1.546;2023-07-09T10:12:17;4.88;;;1.20;;
77984;SDS011;67177;47.240;-1.546;2023-07-09T10:14:49;4.47;;;1.33;;
77984;SDS011;67177;47.240;-1.546;2023-07-09T10:17:35;3.85;;;1.27;;
77984;SDS011;67177;47.240;-1.546;2023-07-09T10:22:55;3.97;;;1.08;;
77984;SDS011;67177;47.240;-1.546;2023-07-09T10:25:46;5.45;;;1.38;;
77984;SDS011;67177;47.240;-1.546;2023-07-09T10:28:49;5.03;;;1.48;;
77984;SDS011;67177;47.240;-1.546;2023-07-09T10:39:55;3.95;;;0.98;;
77984;SDS011;67177;47.240;-1.546;2023-07-09T10:45:13;18.40;;;10.18;;
77984;SDS011;67177;47.240;-1.546;2023-07-09T10:47:48;26.20;;;16.30;;
77984;SDS011;67177;47.240;-1.546;2023-07-09T10:50:31;36.42;;;19.08;;
77984;SDS011;67177;47.240;-1.546;2023-07-09T10:53:55;35.83;;;19.13;;
77984;SDS011;67177;47.240;-1.546;2023-07-09T10:56:17;30.70;;;15.02;;
77984;SDS011;67177;47.240;-1.546;2023-07-09T11:01:40;25.83;;;15.88;;
77984;SDS011;67177;47.240;-1.546;2023-07-09T11:04:10;17.98;;;11.50;;
77984;SDS011;67177;47.240;-1.546;2023-07-09T11:06:57;13.23;;;8.63;;
77984;SDS011;67177;47.240;-1.546;2023-07-09T11:09:26;10.45;;;5.15;;
77984;SDS011;67177;47.240;-1.546;2023-07-09T11:11:56;7.97;;;3.60;;
77984;SDS011;67177;47.240;-1.546;2023-07-09T11:14:30;6.20;;;2.53;;
77984;SDS011;67177;47.240;-1.546;2023-07-09T11:17:00;5.38;;;2.03;;
77984;SDS011;67177;47.240;-1.546;2023-07-09T11:19:28;6.22;;;1.85;;
77984;SDS011;67177;47.240;-1.546;2023-07-09T11:24:48;4.72;;;1.40;;
77984;SDS011;67177;47.240;-1.546;2023-07-09T11:27:30;5.55;;;1.33;;
77984;SDS011;67177;47.240;-1.546;2023-07-09T11:30:00;4.20;;;1.40;;
77984;SDS011;67177;47.240;-1.546;2023-07-09T11:32:45;4.78;;;1.38;;
77984;SDS011;67177;47.240;-1.546;2023-07-09T11:35:20;5.63;;;1.35;;
77984;SDS011;67177;47.240;-1.546;2023-07-09T11:37:47;3.38;;;0.95;;
77984;SDS011;67177;47.240;-1.546;2023-07-09T11:40:13;3.33;;;1.02;;
77984;SDS011;67177;47.240;-1.546;2023-07-09T11:42:58;3.92;;;1.00;;
77984;SDS011;67177;47.240;-1.546;2023-07-09T11:45:27;4.20;;;1.10;;
77984;SDS011;67177;47.240;-1.546;2023-07-09T11:50:48;3.35;;;1.00;;
77984;SDS011;67177;47.240;-1.546;2023-07-09T11:53:22;3.72;;;1.15;;
77984;SDS011;67177;47.240;-1.546;2023-07-09T11:55:51;2.80;;;0.90;;
77984;SDS011;67177;47.240;-1.546;2023-07-09T11:58:17;3.13;;;0.90;;
77984;SDS011;67177;47.240;-1.546;2023-07-09T12:00:50;3.78;;;1.15;;
77984;SDS011;67177;47.240;-1.546;2023-07-09T12:03:21;3.17;;;0.85;;
77984;SDS011;67177;47.240;-1.546;2023-07-09T12:05:53;4.75;;;1.40;;
77984;SDS011;67177;47.240;-1.546;2023-07-09T12:08:22;3.90;;;1.20;;
77984;SDS011;67177;47.240;-1.546;2023-07-09T12:10:54;4.22;;;1.20;;
77984;SDS011;67177;47.240;-1.546;2023-07-09T12:13:20;4.15;;;1.50;;
77984;SDS011;67177;47.240;-1.546;2023-07-09T12:15:45;4.03;;;1.20;;
77984;SDS011;67177;47.240;-1.546;2023-07-09T12:18:13;4.93;;;1.60;;
77984;SDS011;67177;47.240;-1.546;2023-07-09T12:20:40;4.90;;;1.40;;
77984;SDS011;67177;47.240;-1.546;2023-07-09T12:25:56;5.40;;;1.70;;
77984;SDS011;67177;47.240;-1.546;2023-07-09T12:28:26;4.35;;;1.40;;
77984;SDS011;67177;47.240;-1.546;2023-07-09T12:30:53;6.28;;;1.80;;
77984;SDS011;67177;47.240;-1.546;2023-07-09T12:33:23;7.43;;;1.88;;
77984;SDS011;67177;47.240;-1.546;2023-07-09T12:35:58;4.60;;;1.67;;
77984;SDS011;67177;47.240;-1.546;2023-07-09T12:38:29;5.93;;;1.60;;
77984;SDS011;67177;47.240;-1.546;2023-07-09T12:40:59;5.03;;;1.40;;
77984;SDS011;67177;47.240;-1.546;2023-07-09T12:43:26;4.97;;;1.40;;
77984;SDS011;67177;47.240;-1.546;2023-07-09T12:45:53;3.65;;;1.30;;
77984;SDS011;67177;47.240;-1.546;2023-07-09T12:48:24;4.53;;;1.10;;
77984;SDS011;67177;47.240;-1.546;2023-07-09T12:50:53;4.13;;;1.10;;
77984;SDS011;67177;47.240;-1.546;2023-07-09T12:53:22;4.25;;;1.40;;
77984;SDS011;67177;47.240;-1.546;2023-07-09T12:55:51;3.88;;;1.00;;
77984;SDS011;67177;47.240;-1.546;2023-07-09T12:58:22;4.40;;;1.30;;
77984;SDS011;67177;47.240;-1.546;2023-07-09T13:00:51;4.25;;;1.23;;
77984;SDS011;67177;47.240;-1.546;2023-07-09T13:03:25;3.90;;;1.30;;
77984;SDS011;67177;47.240;-1.546;2023-07-09T13:05:54;3.33;;;1.02;;
77984;SDS011;67177;47.240;-1.546;2023-07-09T13:08:25;3.42;;;1.10;;
77984;SDS011;67177;47.240;-1.546;2023-07-09T13:10:52;3.88;;;1.20;;
77984;SDS011;67177;47.240;-1.546;2023-07-09T13:13:22;3.73;;;1.10;;
77984;SDS011;67177;47.240;-1.546;2023-07-09T13:15:56;4.68;;;1.30;;
77984;SDS011;67177;47.240;-1.546;2023-07-09T13:18:26;4.43;;;1.27;;
77984;SDS011;67177;47.240;-1.546;2023-07-09T13:20:53;5.25;;;1.40;;
77984;SDS011;67177;47.240;-1.546;2023-07-09T13:23:21;4.32;;;1.33;;
77984;SDS011;67177;47.240;-1.546;2023-07-09T13:25:51;3.90;;;1.38;;
77984;SDS011;67177;47.240;-1.546;2023-07-09T13:30:58;4.40;;;1.40;;
77984;SDS011;67177;47.240;-1.546;2023-07-09T13:33:26;5.57;;;2.15;;
77984;SDS011;67177;47.240;-1.546;2023-07-09T13:35:52;5.47;;;1.85;;
77984;SDS011;67177;47.240;-1.546;2023-07-09T13:38:19;4.85;;;1.60;;
77984;SDS011;67177;47.240;-1.546;2023-07-09T13:40:47;4.80;;;1.67;;
77984;SDS011;67177;47.240;-1.546;2023-07-09T13:43:18;4.45;;;1.33;;
77984;SDS011;67177;47.240;-1.546;2023-07-09T13:45:56;4.55;;;1.20;;
77984;SDS011;67177;47.240;-1.546;2023-07-09T13:48:23;4.35;;;1.30;;
77984;SDS011;67177;47.240;-1.546;2023-07-09T13:50:50;5.25;;;1.40;;
77984;SDS011;67177;47.240;-1.546;2023-07-09T13:53:21;4.22;;;1.10;;
77984;SDS011;67177;47.240;-1.546;2023-07-09T13:55:49;5.07;;;0.90;;
77984;SDS011;67177;47.240;-1.546;2023-07-09T13:58:17;5.65;;;1.17;;
77984;SDS011;67177;47.240;-1.546;2023-07-09T14:00:45;3.88;;;1.10;;
77984;SDS011;67177;47.240;-1.546;2023-07-09T14:03:23;3.70;;;1.00;;
77984;SDS011;67177;47.240;-1.546;2023-07-09T14:05:52;3.67;;;1.00;;
77984;SDS011;67177;47.240;-1.546;2023-07-09T14:08:18;3.75;;;1.10;;
77984;SDS011;67177;47.240;-1.546;2023-07-09T14:10:47;2.95;;;0.90;;
77984;SDS011;67177;47.240;-1.546;2023-07-09T14:13:17;2.75;;;0.90;;
77984;SDS011;67177;47.240;-1.546;2023-07-09T14:15:44;3.70;;;0.90;;
77984;SDS011;67177;47.240;-1.546;2023-07-09T14:18:14;3.40;;;0.95;;
77984;SDS011;67177;47.240;-1.546;2023-07-09T14:20:45;3.67;;;0.90;;
77984;SDS011;67177;47.240;-1.546;2023-07-09T14:23:11;3.67;;;0.90;;
77984;SDS011;67177;47.240;-1.546;2023-07-09T14:25:39;3.83;;;0.90;;
77984;SDS011;67177;47.240;-1.546;2023-07-09T14:28:10;3.17;;;0.90;;
77984;SDS011;67177;47.240;-1.546;2023-07-09T14:30:38;2.95;;;0.82;;
77984;SDS011;67177;47.240;-1.546;2023-07-09T14:33:07;3.58;;;0.95;;
77984;SDS011;67177;47.240;-1.546;2023-07-09T14:35:38;3.40;;;0.80;;
77984;SDS011;67177;47.240;-1.546;2023-07-09T14:38:06;4.27;;;1.10;;
77984;SDS011;67177;47.240;-1.546;2023-07-09T14:40:47;6.18;;;1.40;;
77984;SDS011;67177;47.240;-1.546;2023-07-09T14:43:14;3.15;;;1.02;;
77984;SDS011;67177;47.240;-1.546;2023-07-09T14:45:40;4.28;;;1.15;;
77984;SDS011;67177;47.240;-1.546;2023-07-09T14:48:13;3.90;;;1.10;;
77984;SDS011;67177;47.240;-1.546;2023-07-09T14:50:41;3.83;;;1.00;;
77984;SDS011;67177;47.240;-1.546;2023-07-09T14:53:26;3.10;;;0.85;;
77984;SDS011;67177;47.240;-1.546;2023-07-09T14:55:52;3.45;;;0.80;;
77984;SDS011;67177;47.240;-1.546;2023-07-09T14:58:20;3.35;;;0.90;;
77984;SDS011;67177;47.240;-1.546;2023-07-09T16:30:18;5.23;;;1.00;;
77984;SDS011;67177;47.240;-1.546;2023-07-09T16:32:53;4.55;;;1.20;;
77984;SDS011;67177;47.240;-1.546;2023-07-09T16:35:19;5.35;;;1.25;;
77984;SDS011;67177;47.240;-1.546;2023-07-09T16:37:47;3.73;;;1.10;;
77984;SDS011;67177;47.240;-1.546;2023-07-09T16:42:43;5.20;;;1.27;;
77984;SDS011;67177;47.240;-1.546;2023-07-09T16:45:10;6.90;;;1.40;;
77984;SDS011;67177;47.240;-1.546;2023-07-09T16:47:38;5.57;;;1.20;;
77984;SDS011;67177;47.240;-1.546;2023-07-09T16:50:04;5.73;;;1.10;;
77984;SDS011;67177;47.240;-1.546;2023-07-09T16:52:30;7.07;;;1.63;;
77984;SDS011;67177;47.240;-1.546;2023-07-09T16:54:56;12.90;;;1.92;;
77984;SDS011;67177;47.240;-1.546;2023-07-09T16:57:23;6.28;;;1.17;;
77984;SDS011;67177;47.240;-1.546;2023-07-09T16:59:52;5.72;;;1.35;;
77984;SDS011;67177;47.240;-1.546;2023-07-09T17:04:48;4.57;;;1.08;;
77984;SDS011;67177;47.240;-1.546;2023-07-09T17:07:13;5.60;;;1.20;;